Portada
METAR-TAF:

METAR-TAF

Aeroports :

Posadas, Argentina

latitud: 27-22S, longitud: 055-58W, altitud: 131 m

Observació

L'informe es va fer fa 24 minuts, a les 02:00 UTC
Vent 5 kt del Sud
Temperatura 14°C
Humitat 63%
Pressió 1022 hPa
Visibilitat 10 km o més
sense núvols per sota de 1500 mi sense presència de cumulonimbus.

METAR: SARP 160200Z 18005KT CAVOK 14/07 Q1022

Hora: 23:24 (02:24 UTC)

Pronòstic

L'informe es va fer fa 3 hores i 24 minuts, a les 23:00 UTC
Pronòstic vàlid del 16 a les 00 UTC al 16 a les 24 UTC
Vent 5 kt del Sud/Sud-Est
Visibilitat 10 km o més
sense núvols per sota de 1500 mi sense presència de cumulonimbus.
Probabilitat 40%
l' 16 a les 07 UTC al 16 a les 12 UTC
Visibilitat: 0800 m
boira

TAF: SARP 152300Z 1600/1624 16005KT CAVOK TX22/1618Z TN10/1610Z PROB40 1607/1612 0800 FG NSC

Observacions i pronòstics meteorològics de més de 4000 aeroports (METAR i TAF).

Les estacions disponibles són els punts grocs i vermells al mapa.

Posi el ratolí al punt desitjat per veure el nom de l'estació.

Feu clic per veure les observacions i els pronòstics meteorològics.

Per canviar el mapa: feu clic els botons verds amb una creu de color negre per apropar; al botó verd amb un guió per allunyar la imatge; o en les fletxes verdes per a mapes adjacents.


METAR-TAF: